createdAt,value
2018-02-21T00:00:22.410Z,1.90
2018-02-21T00:00:54.066Z,1.90
2018-02-21T00:01:25.724Z,1.90
2018-02-21T00:01:57.350Z,1.80
2018-02-21T00:02:28.966Z,1.80
2018-02-21T00:03:00.642Z,1.80
2018-02-21T00:03:32.284Z,1.80
2018-02-21T00:04:03.914Z,1.80
2018-02-21T00:04:35.546Z,1.80
2018-02-21T00:05:07.162Z,1.90
2018-02-21T00:05:38.802Z,1.90
2018-02-21T00:06:10.422Z,1.90
2018-02-21T00:06:42.055Z,1.80
2018-02-21T00:07:13.712Z,1.90
2018-02-21T00:07:45.344Z,1.90
2018-02-21T00:08:17.004Z,1.90
2018-02-21T00:08:48.620Z,1.90
2018-02-21T00:09:20.249Z,1.90
2018-02-21T00:09:51.927Z,1.90
2018-02-21T00:10:23.548Z,1.90
2018-02-21T00:10:55.194Z,1.90
2018-02-21T00:11:26.813Z,1.90
2018-02-21T00:11:58.413Z,1.80
2018-02-21T00:12:30.043Z,1.90
2018-02-21T00:13:01.640Z,1.80
2018-02-21T00:13:33.289Z,1.90
2018-02-21T00:14:04.935Z,1.80
2018-02-21T00:14:36.596Z,1.90
2018-02-21T00:15:08.256Z,1.90
2018-02-21T00:15:39.892Z,1.80
2018-02-21T00:16:11.526Z,1.70
2018-02-21T00:16:43.140Z,1.70
2018-02-21T00:17:14.742Z,1.80
2018-02-21T00:17:46.346Z,1.70
2018-02-21T00:18:17.951Z,1.70
2018-02-21T00:18:49.586Z,1.80
2018-02-21T00:19:21.244Z,1.70
2018-02-21T00:19:52.847Z,1.80
2018-02-21T00:20:24.486Z,1.80
2018-02-21T00:20:56.096Z,1.80
2018-02-21T00:21:27.709Z,1.80
2018-02-21T00:21:59.312Z,1.80
2018-02-21T00:22:30.938Z,1.70
2018-02-21T00:23:02.572Z,1.70
2018-02-21T00:23:34.230Z,1.80
2018-02-21T00:24:05.882Z,1.80
2018-02-21T00:24:37.498Z,1.80
2018-02-21T00:25:09.113Z,1.70
2018-02-21T00:25:40.749Z,1.80
2018-02-21T00:26:12.368Z,1.80
2018-02-21T00:26:44.060Z,1.80
2018-02-21T00:27:15.686Z,1.70
2018-02-21T00:27:47.322Z,1.80
2018-02-21T00:28:18.953Z,1.80
2018-02-21T00:28:50.579Z,1.70
2018-02-21T00:29:22.201Z,1.80
2018-02-21T00:29:53.832Z,1.70
2018-02-21T00:30:25.468Z,1.80
2018-02-21T00:30:57.108Z,1.70
2018-02-21T00:31:28.720Z,1.70
2018-02-21T00:32:00.364Z,1.70
2018-02-21T00:32:31.987Z,1.70
2018-02-21T00:33:03.608Z,1.70
2018-02-21T00:33:35.230Z,1.60
2018-02-21T00:34:06.828Z,1.70
2018-02-21T00:34:38.456Z,1.60
2018-02-21T00:35:10.066Z,1.70
2018-02-21T00:35:41.690Z,1.60
2018-02-21T00:36:13.318Z,1.60
2018-02-21T00:36:44.948Z,1.60
2018-02-21T00:37:16.570Z,1.50
2018-02-21T00:37:48.186Z,1.50
2018-02-21T00:38:19.794Z,1.50
2018-02-21T00:38:51.424Z,1.50
2018-02-21T00:39:23.044Z,1.60
2018-02-21T00:39:54.683Z,1.50
2018-02-21T00:40:26.328Z,1.50
2018-02-21T00:40:57.947Z,1.50
2018-02-21T00:41:29.563Z,1.50
2018-02-21T00:42:01.196Z,1.50
2018-02-21T00:42:32.828Z,1.50
2018-02-21T00:43:04.478Z,1.50
2018-02-21T00:43:36.088Z,1.50
2018-02-21T00:44:07.710Z,1.40
2018-02-21T00:44:39.320Z,1.50
2018-02-21T00:45:10.952Z,1.50
2018-02-21T00:45:42.576Z,1.50
2018-02-21T00:46:14.228Z,1.60
2018-02-21T00:46:45.860Z,1.50
2018-02-21T00:47:17.486Z,1.50
2018-02-21T00:47:49.121Z,1.50
2018-02-21T00:48:20.730Z,1.50
2018-02-21T00:48:52.362Z,1.60
2018-02-21T00:49:23.973Z,1.50
2018-02-21T00:49:55.610Z,1.50
2018-02-21T00:50:27.223Z,1.60
2018-02-21T00:50:58.849Z,1.50
2018-02-21T00:51:30.516Z,1.60
2018-02-21T00:52:02.143Z,1.60
2018-02-21T00:52:33.782Z,1.60
2018-02-21T00:53:05.394Z,1.50
2018-02-21T00:53:37.020Z,1.60
2018-02-21T00:54:08.656Z,1.60
2018-02-21T00:54:40.288Z,1.60
2018-02-21T00:55:11.892Z,1.60
2018-02-21T00:55:43.526Z,1.50
2018-02-21T00:56:15.148Z,1.60
2018-02-21T00:56:46.779Z,1.50
2018-02-21T00:57:18.437Z,1.50
2018-02-21T00:57:50.057Z,1.50
2018-02-21T00:58:21.686Z,1.50
2018-02-21T00:58:53.313Z,1.50
2018-02-21T00:59:24.943Z,1.50
2018-02-21T00:59:56.584Z,1.50
2018-02-21T01:00:28.209Z,1.40
2018-02-21T01:00:59.847Z,1.40
2018-02-21T01:01:31.456Z,1.30
2018-02-21T01:02:03.068Z,1.40
2018-02-21T01:02:34.708Z,1.40
2018-02-21T01:03:06.339Z,1.40
2018-02-21T01:03:37.970Z,1.40
2018-02-21T01:04:09.576Z,1.30
2018-02-21T01:04:41.210Z,1.30
2018-02-21T01:05:12.850Z,1.30
2018-02-21T01:05:44.466Z,1.20
2018-02-21T01:06:16.124Z,1.20
2018-02-21T01:06:47.758Z,1.30
2018-02-21T01:07:19.424Z,1.20
2018-02-21T01:07:51.065Z,1.20
2018-02-21T01:08:22.680Z,1.30
2018-02-21T01:08:54.296Z,1.20
2018-02-21T01:09:25.914Z,1.20
2018-02-21T01:09:57.541Z,1.20
2018-02-21T01:10:29.156Z,1.10
2018-02-21T01:11:00.787Z,1.10
2018-02-21T01:11:32.441Z,1.20
2018-02-21T01:12:04.076Z,1.10
2018-02-21T01:12:36.342Z,1.10
2018-02-21T01:13:07.968Z,1.10
2018-02-21T01:13:39.606Z,1.10
2018-02-21T01:14:11.242Z,1.10
2018-02-21T01:14:42.855Z,1.10
2018-02-21T01:15:14.522Z,1.20
2018-02-21T01:15:46.146Z,1.20
2018-02-21T01:16:17.787Z,1.20
2018-02-21T01:16:49.395Z,1.10
2018-02-21T01:17:21.036Z,1.20
2018-02-21T01:17:52.663Z,1.20
2018-02-21T01:18:24.282Z,1.10
2018-02-21T01:18:55.915Z,1.10
2018-02-21T01:19:27.528Z,1.20
2018-02-21T01:19:59.131Z,1.10
2018-02-21T01:20:30.753Z,1.10
2018-02-21T01:21:02.398Z,1.10
2018-02-21T01:21:34.033Z,1.20
2018-02-21T01:22:05.691Z,1.10
2018-02-21T01:22:37.294Z,1.20
2018-02-21T01:23:08.932Z,1.20
2018-02-21T01:23:40.562Z,1.30
2018-02-21T01:24:12.174Z,1.20
2018-02-21T01:24:43.790Z,1.10
2018-02-21T01:25:15.422Z,1.20
2018-02-21T01:25:47.030Z,1.10
2018-02-21T01:26:18.685Z,1.10
2018-02-21T01:26:50.291Z,1.10
2018-02-21T01:27:21.905Z,1.10
2018-02-21T01:27:53.542Z,1.10
2018-02-21T01:28:25.180Z,1.10
2018-02-21T01:28:56.793Z,1.10
2018-02-21T01:29:28.411Z,1.10
2018-02-21T01:30:00.024Z,1.00
2018-02-21T01:30:31.649Z,1.10
2018-02-21T01:31:03.309Z,1.00
2018-02-21T01:31:34.942Z,1.10
2018-02-21T01:32:06.565Z,1.10
2018-02-21T01:32:38.199Z,1.10
2018-02-21T01:33:09.831Z,1.10
2018-02-21T01:33:41.480Z,1.10
2018-02-21T01:34:13.090Z,1.00
2018-02-21T01:34:44.714Z,1.00
2018-02-21T01:35:16.344Z,1.00
2018-02-21T01:35:47.979Z,1.00
2018-02-21T01:36:19.614Z,1.10
2018-02-21T01:36:51.246Z,1.00
2018-02-21T01:37:22.879Z,1.10
2018-02-21T01:37:54.521Z,1.00
2018-02-21T01:38:26.161Z,1.00
2018-02-21T01:38:57.798Z,1.10
2018-02-21T01:39:29.415Z,1.00
2018-02-21T01:40:01.069Z,1.10
2018-02-21T01:40:32.715Z,1.00
2018-02-21T01:41:04.394Z,1.00
2018-02-21T01:41:36.038Z,1.00
2018-02-21T01:42:07.683Z,1.00
2018-02-21T01:42:39.310Z,1.00
2018-02-21T01:43:10.933Z,1.00
2018-02-21T01:43:42.569Z,1.10
2018-02-21T01:44:14.198Z,1.20
2018-02-21T01:44:45.821Z,1.10
2018-02-21T01:45:17.443Z,1.10
2018-02-21T01:45:49.071Z,1.10
2018-02-21T01:46:20.749Z,1.10
2018-02-21T01:46:52.471Z,1.20
2018-02-21T01:47:24.086Z,1.20
2018-02-21T01:47:55.709Z,1.20
2018-02-21T01:48:27.345Z,1.20
2018-02-21T01:48:58.962Z,1.20
2018-02-21T01:49:30.570Z,1.30
2018-02-21T01:50:02.209Z,1.20
2018-02-21T01:50:51.260Z,1.30
2018-02-21T01:51:22.893Z,1.30
2018-02-21T01:51:54.527Z,1.20
2018-02-21T01:52:26.134Z,1.20
2018-02-21T01:52:57.782Z,1.30
2018-02-21T01:53:29.439Z,1.30
2018-02-21T01:54:01.072Z,1.30
2018-02-21T01:54:32.721Z,1.30
2018-02-21T01:55:04.349Z,1.30
2018-02-21T01:55:35.994Z,1.30
2018-02-21T01:56:07.620Z,1.30
2018-02-21T01:56:39.237Z,1.20
2018-02-21T01:57:10.913Z,1.20
2018-02-21T01:57:42.547Z,1.20
2018-02-21T01:58:14.152Z,1.20
2018-02-21T01:58:45.794Z,1.10
2018-02-21T01:59:17.441Z,1.10
2018-02-21T01:59:49.077Z,1.10
2018-02-21T02:00:20.694Z,1.10
2018-02-21T02:00:52.345Z,1.10
2018-02-21T02:01:23.961Z,1.20
2018-02-21T02:01:55.587Z,1.10
2018-02-21T02:02:27.203Z,1.10
2018-02-21T02:02:58.857Z,1.10
2018-02-21T02:03:30.485Z,1.10
2018-02-21T02:04:02.153Z,1.10
2018-02-21T02:04:33.792Z,1.10
2018-02-21T02:05:05.424Z,1.10
2018-02-21T02:05:37.047Z,1.10
2018-02-21T02:06:08.668Z,1.10
2018-02-21T02:06:40.314Z,1.10
2018-02-21T02:07:11.946Z,1.10
2018-02-21T02:07:43.579Z,1.10
2018-02-21T02:08:15.221Z,1.20
2018-02-21T02:08:46.866Z,1.20
2018-02-21T02:09:18.476Z,1.20
2018-02-21T02:09:50.107Z,1.20
2018-02-21T02:10:21.729Z,1.20
2018-02-21T02:10:53.340Z,1.10
2018-02-21T02:11:24.982Z,1.20
2018-02-21T02:11:56.649Z,1.20
2018-02-21T02:12:28.285Z,1.10
2018-02-21T02:12:59.926Z,1.10
2018-02-21T02:13:31.548Z,1.20
2018-02-21T02:14:03.222Z,1.10
2018-02-21T02:14:34.868Z,1.10
2018-02-21T02:15:06.502Z,1.10
2018-02-21T02:15:38.169Z,1.10
2018-02-21T02:16:09.809Z,1.00
2018-02-21T02:16:41.437Z,1.00
2018-02-21T02:17:13.064Z,1.10
2018-02-21T02:17:44.661Z,1.10
2018-02-21T02:18:16.283Z,1.10
2018-02-21T02:18:47.901Z,1.00
2018-02-21T02:19:19.531Z,1.00
2018-02-21T02:19:51.235Z,1.00
2018-02-21T02:20:22.863Z,1.00
2018-02-21T02:20:54.516Z,1.00
2018-02-21T02:21:26.179Z,1.00
2018-02-21T02:21:57.809Z,1.00
2018-02-21T02:22:29.455Z,1.00
2018-02-21T02:23:01.091Z,1.10
2018-02-21T02:23:32.705Z,1.10
2018-02-21T02:24:04.338Z,1.10
2018-02-21T02:24:35.949Z,1.20
2018-02-21T02:25:07.567Z,1.20
2018-02-21T02:25:39.207Z,1.20
2018-02-21T02:26:10.837Z,1.20
2018-02-21T02:26:42.473Z,1.30
2018-02-21T02:27:14.094Z,1.20
2018-02-21T02:27:45.725Z,1.30
2018-02-21T02:28:17.341Z,1.20
2018-02-21T02:28:48.960Z,1.20
2018-02-21T02:29:20.589Z,1.20
2018-02-21T02:29:52.224Z,1.20
2018-02-21T02:30:23.859Z,1.20
2018-02-21T02:30:55.494Z,1.20
2018-02-21T02:31:27.143Z,1.10
2018-02-21T02:31:58.789Z,1.10
2018-02-21T02:32:30.409Z,1.20
2018-02-21T02:33:02.056Z,1.10
2018-02-21T02:33:33.702Z,1.10
2018-02-21T02:34:05.323Z,1.10
2018-02-21T02:34:36.949Z,1.10
2018-02-21T02:35:08.604Z,1.10
2018-02-21T02:35:40.236Z,1.10
2018-02-21T02:36:11.890Z,1.00
2018-02-21T02:36:43.521Z,1.10
2018-02-21T02:37:15.160Z,1.00
2018-02-21T02:37:46.819Z,1.00
2018-02-21T02:38:37.113Z,0.90
2018-02-21T02:39:27.276Z,0.90
2018-02-21T02:40:00.851Z,1.00
2018-02-21T02:40:32.461Z,0.90
2018-02-21T02:41:04.117Z,0.90
2018-02-21T02:41:35.735Z,0.80
2018-02-21T02:42:07.360Z,0.80
2018-02-21T02:42:38.974Z,0.90
2018-02-21T02:43:10.588Z,0.90
2018-02-21T02:43:42.236Z,0.90
2018-02-21T02:44:13.862Z,0.90
2018-02-21T02:44:45.488Z,1.00
2018-02-21T02:45:17.141Z,0.90
2018-02-21T02:45:48.768Z,0.90
2018-02-21T02:46:20.424Z,1.00
2018-02-21T02:46:52.042Z,1.00
2018-02-21T02:47:23.685Z,1.00
2018-02-21T02:47:55.326Z,1.00
2018-02-21T02:48:26.938Z,1.00
2018-02-21T02:48:58.582Z,0.90
2018-02-21T02:49:30.236Z,1.00
2018-02-21T02:50:01.881Z,0.80
2018-02-21T02:50:33.531Z,0.90
2018-02-21T02:51:05.156Z,0.90
2018-02-21T02:51:36.803Z,0.90
2018-02-21T02:52:08.422Z,0.90
2018-02-21T02:52:40.059Z,0.90
2018-02-21T02:53:11.699Z,0.80
2018-02-21T02:53:43.312Z,0.80
2018-02-21T02:54:14.939Z,0.90
2018-02-21T02:54:46.577Z,1.00
2018-02-21T02:55:18.202Z,0.90
2018-02-21T02:55:49.849Z,1.00
2018-02-21T02:56:21.464Z,1.00
2018-02-21T02:56:53.212Z,1.00
2018-02-21T02:57:24.874Z,0.90
2018-02-21T02:57:56.505Z,1.00
2018-02-21T02:58:28.136Z,1.00
2018-02-21T02:58:59.781Z,1.00
2018-02-21T02:59:31.402Z,1.00
2018-02-21T03:00:03.149Z,1.00
2018-02-21T03:00:34.821Z,1.00
2018-02-21T03:01:06.454Z,1.00
2018-02-21T03:01:38.100Z,1.00
2018-02-21T03:02:09.748Z,1.00
2018-02-21T03:02:41.373Z,1.00
2018-02-21T03:03:13.002Z,1.00
2018-02-21T03:03:44.628Z,1.10
2018-02-21T03:04:16.282Z,1.00
2018-02-21T03:04:47.925Z,1.00
2018-02-21T03:05:19.553Z,1.10
2018-02-21T03:05:51.176Z,1.00
2018-02-21T03:06:22.809Z,1.00
2018-02-21T03:06:54.440Z,1.00
2018-02-21T03:07:26.066Z,0.90
2018-02-21T03:07:57.666Z,1.00
2018-02-21T03:08:29.283Z,1.00
2018-02-21T03:09:00.907Z,1.00
2018-02-21T03:09:32.549Z,1.00
2018-02-21T03:10:04.177Z,0.90
2018-02-21T03:10:35.809Z,1.00
2018-02-21T03:11:07.409Z,0.90
2018-02-21T03:11:39.020Z,0.90
2018-02-21T03:12:10.637Z,1.00
2018-02-21T03:12:42.251Z,1.00
2018-02-21T03:13:13.873Z,0.90
2018-02-21T03:13:45.509Z,0.90
2018-02-21T03:14:17.169Z,0.90
2018-02-21T03:14:48.796Z,1.00
2018-02-21T03:15:20.413Z,0.90
2018-02-21T03:15:52.038Z,0.90
2018-02-21T03:16:23.675Z,0.90
2018-02-21T03:16:55.302Z,0.90
2018-02-21T03:17:26.933Z,0.90
2018-02-21T03:17:58.569Z,0.90
2018-02-21T03:18:30.202Z,0.80
2018-02-21T03:19:01.825Z,0.90
2018-02-21T03:19:33.439Z,0.90
2018-02-21T03:20:05.055Z,0.90
2018-02-21T03:20:36.701Z,0.90
2018-02-21T03:21:08.331Z,0.90
2018-02-21T03:21:39.960Z,0.90
2018-02-21T03:22:11.591Z,0.90
2018-02-21T03:22:43.204Z,0.90
2018-02-21T03:23:14.847Z,0.90
2018-02-21T03:23:46.457Z,0.90
2018-02-21T03:24:18.097Z,0.90
2018-02-21T03:24:49.717Z,0.90
2018-02-21T03:25:21.372Z,0.90
2018-02-21T03:25:53.007Z,1.00
2018-02-21T03:26:24.651Z,0.90
2018-02-21T03:26:56.376Z,0.80
2018-02-21T03:27:28.041Z,0.90
2018-02-21T03:27:59.661Z,0.90
2018-02-21T03:28:31.293Z,0.90
2018-02-21T03:29:02.928Z,0.80
2018-02-21T03:29:34.525Z,0.90
2018-02-21T03:30:06.132Z,0.90
2018-02-21T03:30:37.782Z,0.90
2018-02-21T03:31:09.391Z,1.00
2018-02-21T03:31:41.064Z,0.90
2018-02-21T03:32:12.704Z,0.90
2018-02-21T03:32:44.325Z,0.90
2018-02-21T03:33:15.971Z,0.90
2018-02-21T03:33:47.608Z,0.80
2018-02-21T03:34:19.247Z,0.90
2018-02-21T03:34:50.859Z,0.90
2018-02-21T03:35:22.467Z,0.80
2018-02-21T03:35:54.107Z,0.90
2018-02-21T03:36:25.727Z,0.90
2018-02-21T03:36:57.471Z,0.90
2018-02-21T03:37:29.107Z,0.80
2018-02-21T03:38:00.749Z,0.80
2018-02-21T03:38:32.400Z,0.90
2018-02-21T03:39:04.046Z,1.00
2018-02-21T03:39:35.685Z,0.90
2018-02-21T03:40:07.319Z,0.90
2018-02-21T03:40:38.962Z,0.90
2018-02-21T03:41:10.597Z,0.90
2018-02-21T03:41:42.230Z,0.90
2018-02-21T03:42:13.863Z,0.90
2018-02-21T03:42:45.501Z,0.90
2018-02-21T03:43:17.111Z,0.90
2018-02-21T03:43:48.759Z,0.90
2018-02-21T03:44:20.397Z,0.90
2018-02-21T03:44:52.043Z,0.90
2018-02-21T03:45:23.685Z,0.90
2018-02-21T03:45:55.337Z,0.90
2018-02-21T03:46:26.961Z,0.90
2018-02-21T03:46:58.585Z,0.90
2018-02-21T03:47:30.211Z,1.00
2018-02-21T03:48:01.856Z,0.90
2018-02-21T03:48:33.453Z,0.90
2018-02-21T03:49:05.092Z,0.90
2018-02-21T03:49:36.709Z,1.00
2018-02-21T03:50:08.343Z,1.00
2018-02-21T03:50:39.957Z,1.00
2018-02-21T03:51:11.574Z,1.00
2018-02-21T03:51:43.209Z,1.00
2018-02-21T03:52:14.839Z,0.90
2018-02-21T03:52:46.457Z,1.00
2018-02-21T03:53:18.086Z,1.00
2018-02-21T03:53:49.718Z,1.00
2018-02-21T03:54:21.340Z,0.90
2018-02-21T03:54:52.979Z,0.90
2018-02-21T03:55:24.613Z,1.00
2018-02-21T03:55:56.253Z,1.00
2018-02-21T03:56:27.877Z,1.00
2018-02-21T03:56:59.517Z,1.00
2018-02-21T03:57:31.141Z,1.00
2018-02-21T03:58:02.795Z,0.90
2018-02-21T03:58:34.413Z,0.90
2018-02-21T03:59:06.065Z,0.90
2018-02-21T03:59:37.685Z,0.90
2018-02-21T04:00:09.307Z,0.90
2018-02-21T04:00:40.953Z,0.90
2018-02-21T04:01:12.581Z,0.90
2018-02-21T04:01:44.207Z,0.90
2018-02-21T04:02:15.853Z,0.80
2018-02-21T04:02:47.493Z,0.90
2018-02-21T04:03:19.095Z,0.80
2018-02-21T04:03:50.714Z,0.80
2018-02-21T04:04:22.370Z,0.70
2018-02-21T04:04:53.993Z,0.70
2018-02-21T04:05:25.625Z,0.70
2018-02-21T04:05:57.233Z,0.70
2018-02-21T04:06:28.862Z,0.60
2018-02-21T04:11:58.253Z,0.60
2018-02-21T04:12:29.860Z,0.50
2018-02-21T04:13:01.455Z,0.40
2018-02-21T04:13:33.075Z,0.40
2018-02-21T04:14:04.709Z,0.40
2018-02-21T04:14:36.333Z,0.40
2018-02-21T04:15:07.990Z,0.30
2018-02-21T04:15:39.611Z,0.30
2018-02-21T04:16:11.235Z,0.30
2018-02-21T04:16:42.853Z,0.30
2018-02-21T04:17:14.471Z,0.40
2018-02-21T04:17:46.130Z,0.40
2018-02-21T04:18:17.775Z,0.50
2018-02-21T04:18:49.391Z,0.40
2018-02-21T04:19:21.031Z,0.50
2018-02-21T04:19:52.672Z,0.60
2018-02-21T04:20:25.067Z,0.50
2018-02-21T04:20:56.697Z,0.50
2018-02-21T04:21:28.327Z,0.50
2018-02-21T04:21:59.953Z,0.50
2018-02-21T04:22:31.593Z,0.60
2018-02-21T04:23:03.197Z,0.60
2018-02-21T04:23:34.817Z,0.60
2018-02-21T04:24:06.451Z,0.70
2018-02-21T04:24:38.072Z,0.60
2018-02-21T04:25:09.723Z,0.60
2018-02-21T04:25:41.355Z,0.70
2018-02-21T04:26:12.976Z,0.70
2018-02-21T04:26:44.625Z,0.60
2018-02-21T04:27:16.264Z,0.60
2018-02-21T04:27:47.889Z,0.60
2018-02-21T04:28:19.519Z,0.60
2018-02-21T04:28:51.169Z,0.60
2018-02-21T04:29:22.801Z,0.60
2018-02-21T04:29:54.433Z,0.60
2018-02-21T04:30:26.075Z,0.60
2018-02-21T04:30:57.705Z,0.60
2018-02-21T04:31:29.335Z,0.60
2018-02-21T04:32:00.971Z,0.50
2018-02-21T04:32:32.589Z,0.50
2018-02-21T04:33:04.213Z,0.50
2018-02-21T04:33:35.835Z,0.50
2018-02-21T04:34:07.469Z,0.40
2018-02-21T04:34:39.128Z,0.50
2018-02-21T04:35:10.753Z,0.50
2018-02-21T04:35:42.367Z,0.40
2018-02-21T04:36:13.993Z,0.40
2018-02-21T04:36:45.645Z,0.50
2018-02-21T04:37:17.261Z,0.40
2018-02-21T04:37:48.859Z,0.50
2018-02-21T04:38:20.507Z,0.50
2018-02-21T04:38:52.139Z,0.50
2018-02-21T04:39:23.747Z,0.50
2018-02-21T04:39:55.399Z,0.50
2018-02-21T04:40:27.037Z,0.50
2018-02-21T04:40:58.679Z,0.50
2018-02-21T04:41:30.355Z,0.50
2018-02-21T04:42:01.974Z,0.50
2018-02-21T04:42:33.596Z,0.50
2018-02-21T04:43:05.224Z,0.50
2018-02-21T04:43:36.869Z,0.40
2018-02-21T04:44:08.477Z,0.40
2018-02-21T04:44:40.083Z,0.40
2018-02-21T04:45:11.705Z,0.40
2018-02-21T04:45:43.505Z,0.50
2018-02-21T04:46:15.125Z,0.50
2018-02-21T04:46:46.751Z,0.50
2018-02-21T04:47:18.372Z,0.50
2018-02-21T04:47:49.989Z,0.60
2018-02-21T04:48:21.661Z,0.50
2018-02-21T04:48:53.293Z,0.60
2018-02-21T04:49:24.954Z,0.60
2018-02-21T04:49:56.549Z,0.60
2018-02-21T04:50:28.171Z,0.60
2018-02-21T04:50:59.803Z,0.60
2018-02-21T04:51:31.417Z,0.60
2018-02-21T04:52:03.044Z,0.60
2018-02-21T04:52:34.684Z,0.60
2018-02-21T04:53:06.317Z,0.60
2018-02-21T04:53:37.981Z,0.60
2018-02-21T04:54:09.646Z,0.50
2018-02-21T04:54:45.260Z,0.50
2018-02-21T04:55:23.093Z,0.50
2018-02-21T04:56:00.907Z,0.50
2018-02-21T04:56:38.671Z,0.50
2018-02-21T04:57:16.425Z,0.50
2018-02-21T04:57:48.928Z,0.50
2018-02-21T04:58:26.706Z,0.50
2018-02-21T04:59:04.484Z,0.50
2018-02-21T04:59:39.173Z,0.60
2018-02-21T05:00:10.815Z,0.60
2018-02-21T05:00:42.482Z,0.60
2018-02-21T05:01:14.140Z,0.60
2018-02-21T05:01:45.795Z,0.60
2018-02-21T05:02:17.454Z,0.50
2018-02-21T05:02:49.073Z,0.50
2018-02-21T05:03:20.705Z,0.60
2018-02-21T05:03:52.321Z,0.60
2018-02-21T05:04:23.955Z,0.60
2018-02-21T05:04:55.575Z,0.60
2018-02-21T05:05:27.210Z,0.60
2018-02-21T05:05:58.845Z,0.70
2018-02-21T05:06:30.521Z,0.60
2018-02-21T05:07:02.203Z,0.60
2018-02-21T05:07:33.845Z,0.60
2018-02-21T05:08:05.462Z,0.60
2018-02-21T05:08:37.107Z,0.50
2018-02-21T05:09:08.753Z,0.50
2018-02-21T05:09:40.387Z,0.50
2018-02-21T05:10:12.047Z,0.50
2018-02-21T05:10:43.665Z,0.40
2018-02-21T05:11:15.277Z,0.40
2018-02-21T05:11:46.915Z,0.40
2018-02-21T05:12:18.549Z,0.40
2018-02-21T05:12:50.180Z,0.40
2018-02-21T05:13:21.809Z,0.40
2018-02-21T05:13:53.445Z,0.40
2018-02-21T05:14:25.064Z,0.40
2018-02-21T05:14:56.709Z,0.50
2018-02-21T05:15:28.343Z,0.50
2018-02-21T05:15:59.961Z,0.60
2018-02-21T05:16:31.599Z,0.60
2018-02-21T05:17:03.240Z,0.50
2018-02-21T05:17:34.907Z,0.60
2018-02-21T05:18:06.547Z,0.50
2018-02-21T05:18:38.171Z,0.70
2018-02-21T05:19:09.808Z,0.60
2018-02-21T05:19:41.491Z,0.60
2018-02-21T05:20:13.109Z,0.60
2018-02-21T05:20:44.772Z,0.60
2018-02-21T05:21:16.389Z,0.60
2018-02-21T05:21:48.017Z,0.60
2018-02-21T05:22:19.639Z,0.50
2018-02-21T05:22:51.275Z,0.60
2018-02-21T05:23:22.920Z,0.60
2018-02-21T05:23:54.593Z,0.60
2018-02-21T05:24:26.229Z,0.60
2018-02-21T05:24:57.860Z,0.60
2018-02-21T05:25:29.483Z,0.60
2018-02-21T05:26:01.133Z,0.60
2018-02-21T05:26:32.757Z,0.60
2018-02-21T05:27:04.383Z,0.60
2018-02-21T05:27:36.084Z,0.60
2018-02-21T05:28:07.702Z,0.60
2018-02-21T05:28:39.334Z,0.50
2018-02-21T05:29:10.950Z,0.60
2018-02-21T05:29:42.597Z,0.50
2018-02-21T05:30:14.213Z,0.50
2018-02-21T05:30:45.833Z,0.50
2018-02-21T05:31:17.491Z,0.50
2018-02-21T05:31:49.097Z,0.50
2018-02-21T05:32:20.717Z,0.50
2018-02-21T05:32:52.363Z,0.50
2018-02-21T05:33:24.019Z,0.50
2018-02-21T05:33:55.638Z,0.40
2018-02-21T05:34:27.264Z,0.40
2018-02-21T05:34:58.893Z,0.40
2018-02-21T05:35:30.535Z,0.40
2018-02-21T05:36:02.197Z,0.40
2018-02-21T05:36:33.893Z,0.30
2018-02-21T05:37:05.521Z,0.20
2018-02-21T05:37:37.149Z,0.30
2018-02-21T05:38:08.798Z,0.20
2018-02-21T05:38:40.421Z,0.20
2018-02-21T05:39:12.027Z,0.20
2018-02-21T05:39:43.659Z,0.20
2018-02-21T05:40:15.289Z,0.20
2018-02-21T05:40:46.899Z,0.20
2018-02-21T05:41:18.575Z,0.10
2018-02-21T05:41:50.227Z,0.10
2018-02-21T05:42:21.839Z,0.10
2018-02-21T05:42:53.451Z,0.10
2018-02-21T05:43:25.078Z,0.10
2018-02-21T05:43:56.705Z,0.10
2018-02-21T05:44:28.359Z,0.10
2018-02-21T05:44:59.983Z,0.10
2018-02-21T05:45:31.606Z,0.00
2018-02-21T05:46:03.259Z,0.10
2018-02-21T05:46:34.894Z,0.00
2018-02-21T05:47:06.561Z,0.00
2018-02-21T05:47:38.188Z,0.10
2018-02-21T05:48:09.821Z,0.00
2018-02-21T05:48:41.443Z,-0.10
2018-02-21T05:49:13.075Z,0.00
2018-02-21T05:49:44.699Z,0.00
2018-02-21T05:50:16.321Z,0.00
2018-02-21T05:50:47.954Z,-0.10
2018-02-21T05:51:19.573Z,0.00
2018-02-21T05:51:51.201Z,0.00
2018-02-21T05:52:22.835Z,-0.10
2018-02-21T05:52:54.458Z,-0.10
2018-02-21T05:53:26.118Z,-0.10
2018-02-21T05:53:57.725Z,-0.10
2018-02-21T05:54:29.375Z,-0.20
2018-02-21T05:55:00.997Z,-0.20
2018-02-21T05:55:32.610Z,-0.20
2018-02-21T05:56:04.233Z,-0.20
2018-02-21T05:56:35.874Z,-0.10
2018-02-21T05:57:07.505Z,-0.20
2018-02-21T05:57:39.158Z,-0.20
2018-02-21T05:58:10.798Z,-0.20
2018-02-21T05:58:42.447Z,-0.20
2018-02-21T05:59:14.099Z,-0.20
2018-02-21T05:59:45.733Z,-0.20
2018-02-21T06:00:17.361Z,-0.20
2018-02-21T06:00:48.995Z,-0.20
2018-02-21T06:01:20.623Z,-0.30
2018-02-21T06:01:52.244Z,-0.20
2018-02-21T06:02:23.910Z,-0.20
2018-02-21T06:02:55.565Z,-0.20
2018-02-21T06:03:27.229Z,-0.20
2018-02-21T06:03:58.851Z,-0.30
2018-02-21T06:04:30.501Z,-0.30
2018-02-21T06:05:02.126Z,-0.30
2018-02-21T06:05:33.761Z,-0.30
2018-02-21T06:06:05.395Z,-0.20
2018-02-21T06:06:37.021Z,-0.40
2018-02-21T06:07:08.641Z,-0.40
2018-02-21T06:07:40.275Z,-0.30
2018-02-21T06:08:11.923Z,-0.30
2018-02-21T06:08:43.545Z,-0.40
2018-02-21T06:09:15.173Z,-0.40
2018-02-21T06:09:46.799Z,-0.40
2018-02-21T06:10:18.435Z,-0.30
2018-02-21T06:10:50.072Z,-0.40
2018-02-21T06:11:21.705Z,-0.40
2018-02-21T06:11:53.329Z,-0.40
2018-02-21T06:12:24.933Z,-0.40
2018-02-21T06:12:56.553Z,-0.40
2018-02-21T06:13:28.189Z,-0.40
2018-02-21T06:13:59.807Z,-0.40
2018-02-21T06:14:31.453Z,-0.40
2018-02-21T06:15:03.133Z,-0.50
2018-02-21T06:15:34.769Z,-0.40
2018-02-21T06:16:06.440Z,-0.40
2018-02-21T06:16:38.071Z,-0.40
2018-02-21T06:17:09.727Z,-0.30
2018-02-21T06:17:41.339Z,-0.40
2018-02-21T06:18:12.969Z,-0.40
2018-02-21T06:18:44.615Z,-0.40
2018-02-21T06:19:16.228Z,-0.40
2018-02-21T06:19:47.897Z,-0.40
2018-02-21T06:20:19.507Z,-0.40
2018-02-21T06:20:51.151Z,-0.40
2018-02-21T06:21:22.765Z,-0.40
2018-02-21T06:21:54.405Z,-0.50
2018-02-21T06:22:26.057Z,-0.50
2018-02-21T06:22:57.700Z,-0.50
2018-02-21T06:23:29.323Z,-0.50
2018-02-21T06:24:00.993Z,-0.50
2018-02-21T06:24:32.607Z,-0.50
2018-02-21T06:25:04.267Z,-0.50
2018-02-21T06:25:35.895Z,-0.50
2018-02-21T06:26:07.536Z,-0.50
2018-02-21T06:26:39.169Z,-0.40
2018-02-21T06:27:10.783Z,-0.50
2018-02-21T06:27:42.401Z,-0.50
2018-02-21T06:28:14.063Z,-0.50
2018-02-21T06:28:45.695Z,-0.50
2018-02-21T06:29:17.327Z,-0.50
2018-02-21T06:29:48.951Z,-0.50
2018-02-21T06:30:20.557Z,-0.50
2018-02-21T06:30:52.222Z,-0.60
2018-02-21T06:31:23.857Z,-0.50
2018-02-21T06:31:55.494Z,-0.50
2018-02-21T06:32:27.130Z,-0.60
2018-02-21T06:32:58.746Z,-0.50
2018-02-21T06:33:30.367Z,-0.50
2018-02-21T06:34:01.989Z,-0.50
2018-02-21T06:34:33.649Z,-0.50
2018-02-21T06:35:05.255Z,-0.50
2018-02-21T06:35:36.885Z,-0.50
2018-02-21T06:36:08.519Z,-0.50
2018-02-21T06:36:40.161Z,-0.50
2018-02-21T06:37:11.809Z,-0.50
2018-02-21T06:37:43.442Z,-0.60
2018-02-21T06:38:15.058Z,-0.60
2018-02-21T06:38:46.691Z,-0.60
2018-02-21T06:39:18.333Z,-0.50
2018-02-21T06:39:49.957Z,-0.50
2018-02-21T06:40:21.567Z,-0.50
2018-02-21T06:40:53.213Z,-0.60
2018-02-21T06:41:24.849Z,-0.60
2018-02-21T06:41:56.493Z,-0.50
2018-02-21T06:42:28.155Z,-0.50
2018-02-21T06:42:59.787Z,-0.50
2018-02-21T06:43:31.435Z,-0.50
2018-02-21T06:44:03.077Z,-0.50
2018-02-21T06:44:34.695Z,-0.50
2018-02-21T06:45:06.338Z,-0.60
2018-02-21T06:45:37.957Z,-0.50
2018-02-21T06:46:09.573Z,-0.50
2018-02-21T06:46:41.199Z,-0.60
2018-02-21T06:47:12.876Z,-0.60
2018-02-21T06:47:44.490Z,-0.60
2018-02-21T06:48:16.120Z,-0.50
2018-02-21T06:48:47.763Z,-0.50
2018-02-21T06:49:19.397Z,-0.50
2018-02-21T06:49:51.025Z,-0.50
2018-02-21T06:50:22.661Z,-0.50
2018-02-21T06:50:54.307Z,-0.50
2018-02-21T06:51:25.945Z,-0.50
2018-02-21T06:51:57.575Z,-0.50
2018-02-21T06:52:29.185Z,-0.50
2018-02-21T06:53:00.800Z,-0.50
2018-02-21T06:53:32.421Z,-0.50
2018-02-21T06:54:04.043Z,-0.50
2018-02-21T06:54:35.675Z,-0.40
2018-02-21T06:55:07.311Z,-0.50
2018-02-21T06:55:38.974Z,-0.50
2018-02-21T06:56:10.628Z,-0.40
2018-02-21T06:56:42.241Z,-0.50
2018-02-21T06:57:13.901Z,-0.50
2018-02-21T06:57:45.533Z,-0.50
2018-02-21T06:58:17.157Z,-0.40
2018-02-21T06:58:48.777Z,-0.40
2018-02-21T06:59:20.411Z,-0.30
2018-02-21T06:59:52.031Z,-0.40
2018-02-21T07:00:23.675Z,-0.30
2018-02-21T07:00:55.300Z,-0.30
2018-02-21T07:01:26.909Z,-0.30
2018-02-21T07:01:58.515Z,-0.30
2018-02-21T07:02:34.017Z,-0.30
2018-02-21T07:03:05.643Z,-0.30
2018-02-21T07:03:37.265Z,-0.30
2018-02-21T07:04:08.897Z,-0.40
2018-02-21T07:04:40.511Z,-0.40
2018-02-21T07:05:12.146Z,-0.30